sensor_id;sensor_type;location;lat;lon;timestamp;pressure;altitude;pressure_sealevel;temperature;humidity
15314;BME280;7757;52.626;4.746;2023-04-21T00:00:55;101565.00;;;12.65;64.21
15314;BME280;7757;52.626;4.746;2023-04-21T00:03:41;101564.19;;;13.67;62.79
15314;BME280;7757;52.626;4.746;2023-04-21T00:06:27;101552.84;;;13.36;64.04
15314;BME280;7757;52.626;4.746;2023-04-21T00:09:15;101558.69;;;13.54;63.84
15314;BME280;7757;52.626;4.746;2023-04-21T00:12:01;101532.19;;;13.07;64.37
15314;BME280;7757;52.626;4.746;2023-04-21T00:14:46;101528.03;;;14.06;62.82
15314;BME280;7757;52.626;4.746;2023-04-21T00:17:32;101546.50;;;12.85;66.08
15314;BME280;7757;52.626;4.746;2023-04-21T00:20:17;101552.59;;;14.38;62.92
15314;BME280;7757;52.626;4.746;2023-04-21T00:23:02;101539.19;;;12.94;65.03
15314;BME280;7757;52.626;4.746;2023-04-21T00:25:49;101535.59;;;12.72;66.44
15314;BME280;7757;52.626;4.746;2023-04-21T00:28:35;101535.53;;;13.38;66.11
15314;BME280;7757;52.626;4.746;2023-04-21T00:31:20;101531.47;;;13.13;66.30
15314;BME280;7757;52.626;4.746;2023-04-21T00:34:06;101526.22;;;12.68;69.08
15314;BME280;7757;52.626;4.746;2023-04-21T00:36:51;101517.19;;;12.46;69.48
15314;BME280;7757;52.626;4.746;2023-04-21T00:39:36;101527.22;;;12.67;68.48
15314;BME280;7757;52.626;4.746;2023-04-21T00:42:23;101522.81;;;12.74;68.38
15314;BME280;7757;52.626;4.746;2023-04-21T00:45:09;101516.94;;;12.18;70.78
15314;BME280;7757;52.626;4.746;2023-04-21T00:47:54;101511.03;;;12.60;68.83
15314;BME280;7757;52.626;4.746;2023-04-21T00:50:40;101492.75;;;13.37;67.42
15314;BME280;7757;52.626;4.746;2023-04-21T00:53:26;101507.00;;;13.23;66.04
15314;BME280;7757;52.626;4.746;2023-04-21T00:56:11;101486.72;;;12.24;70.82
15314;BME280;7757;52.626;4.746;2023-04-21T00:58:59;101480.59;;;12.68;69.87
15314;BME280;7757;52.626;4.746;2023-04-21T01:01:45;101473.13;;;12.63;70.37
15314;BME280;7757;52.626;4.746;2023-04-21T01:04:31;101469.94;;;11.85;72.72
15314;BME280;7757;52.626;4.746;2023-04-21T01:07:24;101465.31;;;12.16;71.90
15314;BME280;7757;52.626;4.746;2023-04-21T01:10:10;101449.28;;;13.33;68.64
15314;BME280;7757;52.626;4.746;2023-04-21T01:12:55;101450.22;;;13.62;67.05
15314;BME280;7757;52.626;4.746;2023-04-21T01:15:42;101454.38;;;13.64;67.46
15314;BME280;7757;52.626;4.746;2023-04-21T01:18:27;101458.66;;;12.79;70.06
15314;BME280;7757;52.626;4.746;2023-04-21T01:21:14;101452.34;;;13.30;69.01
15314;BME280;7757;52.626;4.746;2023-04-21T01:24:01;101439.59;;;13.18;68.55
15314;BME280;7757;52.626;4.746;2023-04-21T01:26:46;101448.50;;;13.96;65.60
15314;BME280;7757;52.626;4.746;2023-04-21T01:29:32;101428.63;;;14.40;63.02
15314;BME280;7757;52.626;4.746;2023-04-21T01:32:19;101439.50;;;14.60;62.50
15314;BME280;7757;52.626;4.746;2023-04-21T01:35:05;101440.78;;;14.64;62.93
15314;BME280;7757;52.626;4.746;2023-04-21T01:37:51;101446.78;;;14.66;63.84
15314;BME280;7757;52.626;4.746;2023-04-21T01:40:38;101443.38;;;14.50;63.82
15314;BME280;7757;52.626;4.746;2023-04-21T01:43:25;101428.44;;;14.82;61.98
15314;BME280;7757;52.626;4.746;2023-04-21T01:46:10;101443.94;;;15.08;61.57
15314;BME280;7757;52.626;4.746;2023-04-21T01:48:55;101438.69;;;14.93;61.42
15314;BME280;7757;52.626;4.746;2023-04-21T01:51:41;101433.84;;;14.82;61.89
15314;BME280;7757;52.626;4.746;2023-04-21T01:54:26;101418.00;;;15.07;60.81
15314;BME280;7757;52.626;4.746;2023-04-21T01:57:13;101428.63;;;15.22;60.64
15314;BME280;7757;52.626;4.746;2023-04-21T01:59:58;101420.59;;;15.28;60.52
15314;BME280;7757;52.626;4.746;2023-04-21T02:02:44;101424.34;;;15.40;60.24
15314;BME280;7757;52.626;4.746;2023-04-21T02:05:29;101414.78;;;15.31;59.75
15314;BME280;7757;52.626;4.746;2023-04-21T02:08:15;101418.28;;;15.25;60.06
15314;BME280;7757;52.626;4.746;2023-04-21T02:11:01;101411.63;;;15.21;60.49
15314;BME280;7757;52.626;4.746;2023-04-21T02:13:47;101416.47;;;15.39;60.91
15314;BME280;7757;52.626;4.746;2023-04-21T02:16:33;101408.38;;;15.39;60.23
15314;BME280;7757;52.626;4.746;2023-04-21T02:19:18;101386.56;;;15.14;60.93
15314;BME280;7757;52.626;4.746;2023-04-21T02:22:04;101413.34;;;15.29;60.65
15314;BME280;7757;52.626;4.746;2023-04-21T02:24:50;101406.50;;;15.39;60.47
15314;BME280;7757;52.626;4.746;2023-04-21T02:27:35;101398.22;;;15.34;59.93
15314;BME280;7757;52.626;4.746;2023-04-21T02:30:22;101415.22;;;15.35;59.93
15314;BME280;7757;52.626;4.746;2023-04-21T02:33:07;101393.66;;;15.35;60.87
15314;BME280;7757;52.626;4.746;2023-04-21T02:35:53;101399.13;;;15.54;59.34
15314;BME280;7757;52.626;4.746;2023-04-21T02:38:38;101386.00;;;15.45;59.35
15314;BME280;7757;52.626;4.746;2023-04-21T02:41:23;101378.59;;;15.47;59.66
15314;BME280;7757;52.626;4.746;2023-04-21T02:44:09;101373.19;;;15.47;60.06
15314;BME280;7757;52.626;4.746;2023-04-21T02:46:56;101374.63;;;15.56;59.83
15314;BME280;7757;52.626;4.746;2023-04-21T02:49:42;101362.63;;;15.58;59.35
15314;BME280;7757;52.626;4.746;2023-04-21T02:52:27;101372.34;;;15.46;60.02
15314;BME280;7757;52.626;4.746;2023-04-21T02:55:13;101362.63;;;15.52;60.19
15314;BME280;7757;52.626;4.746;2023-04-21T02:57:58;101367.78;;;15.53;59.74
15314;BME280;7757;52.626;4.746;2023-04-21T03:00:44;101363.84;;;15.56;59.95
15314;BME280;7757;52.626;4.746;2023-04-21T03:03:31;101369.25;;;15.56;59.54
15314;BME280;7757;52.626;4.746;2023-04-21T03:06:16;101363.44;;;15.59;60.30
15314;BME280;7757;52.626;4.746;2023-04-21T03:09:02;101376.53;;;15.55;59.70
15314;BME280;7757;52.626;4.746;2023-04-21T03:11:47;101361.16;;;15.56;59.64
15314;BME280;7757;52.626;4.746;2023-04-21T03:14:32;101375.69;;;15.55;59.74
15314;BME280;7757;52.626;4.746;2023-04-21T03:17:18;101359.94;;;15.52;59.33
15314;BME280;7757;52.626;4.746;2023-04-21T03:20:06;101369.34;;;15.22;60.48
15314;BME280;7757;52.626;4.746;2023-04-21T03:22:52;101375.44;;;15.43;60.17
15314;BME280;7757;52.626;4.746;2023-04-21T03:25:37;101366.50;;;15.36;59.65
15314;BME280;7757;52.626;4.746;2023-04-21T03:28:23;101379.22;;;15.49;60.43
15314;BME280;7757;52.626;4.746;2023-04-21T03:31:08;101377.13;;;15.51;59.73
15314;BME280;7757;52.626;4.746;2023-04-21T03:33:54;101380.25;;;15.54;59.64
15314;BME280;7757;52.626;4.746;2023-04-21T03:36:41;101383.56;;;15.56;59.63
15314;BME280;7757;52.626;4.746;2023-04-21T03:39:26;101380.19;;;15.41;61.00
15314;BME280;7757;52.626;4.746;2023-04-21T03:42:11;101375.00;;;15.40;60.45
15314;BME280;7757;52.626;4.746;2023-04-21T03:45:00;101375.91;;;15.47;60.63
15314;BME280;7757;52.626;4.746;2023-04-21T03:47:46;101379.38;;;15.41;60.23
15314;BME280;7757;52.626;4.746;2023-04-21T03:50:31;101371.06;;;15.42;60.93
15314;BME280;7757;52.626;4.746;2023-04-21T03:53:18;101369.34;;;15.22;61.23
15314;BME280;7757;52.626;4.746;2023-04-21T03:56:04;101368.38;;;15.29;61.03
15314;BME280;7757;52.626;4.746;2023-04-21T03:58:49;101378.31;;;15.42;60.52
15314;BME280;7757;52.626;4.746;2023-04-21T04:01:35;101372.53;;;15.45;60.41
15314;BME280;7757;52.626;4.746;2023-04-21T04:04:21;101376.69;;;15.47;60.62
15314;BME280;7757;52.626;4.746;2023-04-21T04:07:06;101365.03;;;15.34;60.25
15314;BME280;7757;52.626;4.746;2023-04-21T04:09:53;101375.00;;;15.40;60.17
15314;BME280;7757;52.626;4.746;2023-04-21T04:12:39;101379.13;;;15.29;61.46
15314;BME280;7757;52.626;4.746;2023-04-21T04:15:24;101378.47;;;15.21;61.07
15314;BME280;7757;52.626;4.746;2023-04-21T04:18:10;101386.84;;;14.85;62.47
15314;BME280;7757;52.626;4.746;2023-04-21T04:20:55;101384.88;;;14.66;62.92
15314;BME280;7757;52.626;4.746;2023-04-21T04:23:41;101371.59;;;15.05;62.32
15314;BME280;7757;52.626;4.746;2023-04-21T04:26:28;101370.13;;;15.09;61.50
15314;BME280;7757;52.626;4.746;2023-04-21T04:29:13;101368.75;;;14.38;64.45
15314;BME280;7757;52.626;4.746;2023-04-21T04:31:59;101362.03;;;14.96;62.43
15314;BME280;7757;52.626;4.746;2023-04-21T04:34:46;101330.25;;;13.75;66.65
15314;BME280;7757;52.626;4.746;2023-04-21T04:37:32;101309.06;;;13.66;67.59
15314;BME280;7757;52.626;4.746;2023-04-21T04:40:18;101329.47;;;13.60;68.90
15314;BME280;7757;52.626;4.746;2023-04-21T04:43:04;101328.88;;;13.01;70.90
15314;BME280;7757;52.626;4.746;2023-04-21T04:45:51;101337.06;;;14.06;67.17
15314;BME280;7757;52.626;4.746;2023-04-21T04:48:37;101353.03;;;13.37;69.23
15314;BME280;7757;52.626;4.746;2023-04-21T04:51:23;101356.66;;;14.27;66.11
15314;BME280;7757;52.626;4.746;2023-04-21T04:54:08;101366.00;;;13.33;68.50
15314;BME280;7757;52.626;4.746;2023-04-21T04:56:53;101361.34;;;13.63;68.62
15314;BME280;7757;52.626;4.746;2023-04-21T04:59:41;101366.59;;;13.71;69.29
15314;BME280;7757;52.626;4.746;2023-04-21T05:02:26;101353.91;;;13.86;67.87
15314;BME280;7757;52.626;4.746;2023-04-21T05:05:11;101361.81;;;13.94;67.14
15314;BME280;7757;52.626;4.746;2023-04-21T05:07:57;101360.34;;;14.47;64.77
15314;BME280;7757;52.626;4.746;2023-04-21T05:10:42;101338.00;;;13.91;66.40
15314;BME280;7757;52.626;4.746;2023-04-21T05:13:28;101354.75;;;12.58;71.11
15314;BME280;7757;52.626;4.746;2023-04-21T05:16:14;101350.34;;;14.07;67.04
15314;BME280;7757;52.626;4.746;2023-04-21T05:19:00;101374.00;;;14.46;65.09
15314;BME280;7757;52.626;4.746;2023-04-21T05:21:45;101357.66;;;13.92;66.60
15314;BME280;7757;52.626;4.746;2023-04-21T05:24:31;101373.75;;;14.41;65.50
15314;BME280;7757;52.626;4.746;2023-04-21T05:27:16;101361.44;;;13.76;67.24
15314;BME280;7757;52.626;4.746;2023-04-21T05:30:02;101375.78;;;14.11;66.15
15314;BME280;7757;52.626;4.746;2023-04-21T05:32:49;101366.34;;;13.94;65.66
15314;BME280;7757;52.626;4.746;2023-04-21T05:35:34;101371.44;;;14.38;65.67
15314;BME280;7757;52.626;4.746;2023-04-21T05:38:20;101354.38;;;14.24;65.96
15314;BME280;7757;52.626;4.746;2023-04-21T05:41:05;101368.66;;;13.69;67.75
15314;BME280;7757;52.626;4.746;2023-04-21T05:43:50;101367.72;;;14.11;66.59
15314;BME280;7757;52.626;4.746;2023-04-21T05:46:36;101372.56;;;13.94;67.62
15314;BME280;7757;52.626;4.746;2023-04-21T05:49:23;101374.41;;;13.66;69.32
15314;BME280;7757;52.626;4.746;2023-04-21T05:52:08;101362.50;;;14.03;66.71
15314;BME280;7757;52.626;4.746;2023-04-21T05:54:54;101355.72;;;14.07;67.08
15314;BME280;7757;52.626;4.746;2023-04-21T05:57:39;101364.88;;;13.64;69.21
15314;BME280;7757;52.626;4.746;2023-04-21T06:00:25;101365.78;;;13.98;67.31
15314;BME280;7757;52.626;4.746;2023-04-21T06:03:10;101363.97;;;13.57;68.70
15314;BME280;7757;52.626;4.746;2023-04-21T06:05:58;101367.66;;;13.13;71.37
15314;BME280;7757;52.626;4.746;2023-04-21T06:08:44;101358.44;;;12.86;71.39
15314;BME280;7757;52.626;4.746;2023-04-21T06:11:29;101363.13;;;13.56;69.48
15314;BME280;7757;52.626;4.746;2023-04-21T06:14:14;101349.53;;;13.58;68.40
15314;BME280;7757;52.626;4.746;2023-04-21T06:17:00;101357.72;;;13.98;68.34
15314;BME280;7757;52.626;4.746;2023-04-21T06:19:45;101359.19;;;13.31;69.16
15314;BME280;7757;52.626;4.746;2023-04-21T06:22:37;101369.25;;;14.20;67.87
15314;BME280;7757;52.626;4.746;2023-04-21T06:25:22;101369.53;;;14.04;68.46
15314;BME280;7757;52.626;4.746;2023-04-21T06:28:08;101368.09;;;14.64;65.44
15314;BME280;7757;52.626;4.746;2023-04-21T06:30:56;101382.59;;;14.63;65.29
15314;BME280;7757;52.626;4.746;2023-04-21T06:33:41;101358.78;;;13.55;69.65
15314;BME280;7757;52.626;4.746;2023-04-21T06:36:27;101350.06;;;13.32;70.33
15314;BME280;7757;52.626;4.746;2023-04-21T06:39:14;101358.34;;;13.30;70.04
15314;BME280;7757;52.626;4.746;2023-04-21T06:41:59;101354.38;;;13.48;69.71
15314;BME280;7757;52.626;4.746;2023-04-21T06:44:45;101346.41;;;13.82;68.74
15314;BME280;7757;52.626;4.746;2023-04-21T06:47:30;101363.06;;;13.71;68.82
15314;BME280;7757;52.626;4.746;2023-04-21T06:50:16;101361.91;;;12.51;72.17
15314;BME280;7757;52.626;4.746;2023-04-21T06:53:01;101360.75;;;13.47;70.46
15314;BME280;7757;52.626;4.746;2023-04-21T06:55:48;101366.91;;;13.19;71.80
15314;BME280;7757;52.626;4.746;2023-04-21T06:58:35;101358.06;;;12.90;71.41
15314;BME280;7757;52.626;4.746;2023-04-21T07:01:20;101354.97;;;13.07;71.61
15314;BME280;7757;52.626;4.746;2023-04-21T07:04:06;101351.88;;;13.25;70.92
15314;BME280;7757;52.626;4.746;2023-04-21T07:06:52;101364.81;;;13.57;68.85
15314;BME280;7757;52.626;4.746;2023-04-21T07:09:37;101360.63;;;12.98;72.22
15314;BME280;7757;52.626;4.746;2023-04-21T07:12:24;101365.44;;;13.59;68.98
15314;BME280;7757;52.626;4.746;2023-04-21T07:15:10;101350.25;;;13.09;72.12
15314;BME280;7757;52.626;4.746;2023-04-21T07:17:56;101361.22;;;13.71;68.28
15314;BME280;7757;52.626;4.746;2023-04-21T07:20:41;101355.03;;;13.98;69.01
15314;BME280;7757;52.626;4.746;2023-04-21T07:23:27;101354.81;;;13.30;70.92
15314;BME280;7757;52.626;4.746;2023-04-21T07:26:14;101363.00;;;13.64;69.95
15314;BME280;7757;52.626;4.746;2023-04-21T07:29:02;101373.75;;;13.07;71.11
15314;BME280;7757;52.626;4.746;2023-04-21T07:31:47;101359.56;;;13.49;70.22
15314;BME280;7757;52.626;4.746;2023-04-21T07:34:33;101354.88;;;13.01;72.29
15314;BME280;7757;52.626;4.746;2023-04-21T07:37:19;101332.63;;;13.21;71.22
15314;BME280;7757;52.626;4.746;2023-04-21T07:40:06;101351.41;;;13.21;71.70
15314;BME280;7757;52.626;4.746;2023-04-21T07:42:55;101355.22;;;13.76;69.20
15314;BME280;7757;52.626;4.746;2023-04-21T07:45:42;101364.72;;;13.72;69.93
15314;BME280;7757;52.626;4.746;2023-04-21T07:48:28;101356.34;;;13.18;70.49
15314;BME280;7757;52.626;4.746;2023-04-21T07:51:13;101361.19;;;13.29;71.42
15314;BME280;7757;52.626;4.746;2023-04-21T07:54:00;101353.22;;;13.57;69.95
15314;BME280;7757;52.626;4.746;2023-04-21T07:56:46;101362.13;;;13.85;69.30
15314;BME280;7757;52.626;4.746;2023-04-21T07:59:31;101362.00;;;14.21;67.23
15314;BME280;7757;52.626;4.746;2023-04-21T08:02:18;101349.72;;;14.12;67.25
15314;BME280;7757;52.626;4.746;2023-04-21T08:05:04;101347.00;;;13.77;68.65
15314;BME280;7757;52.626;4.746;2023-04-21T08:07:49;101361.38;;;13.91;67.82
15314;BME280;7757;52.626;4.746;2023-04-21T08:10:34;101374.88;;;14.25;67.15
15314;BME280;7757;52.626;4.746;2023-04-21T08:13:20;101362.00;;;14.21;66.83
15314;BME280;7757;52.626;4.746;2023-04-21T08:16:08;101364.81;;;14.34;66.97
15314;BME280;7757;52.626;4.746;2023-04-21T08:18:55;101355.97;;;14.40;66.94
15314;BME280;7757;52.626;4.746;2023-04-21T08:21:40;101369.75;;;14.65;66.68
15314;BME280;7757;52.626;4.746;2023-04-21T08:24:25;101363.41;;;14.79;66.19
15314;BME280;7757;52.626;4.746;2023-04-21T08:27:11;101357.41;;;15.50;63.34
15314;BME280;7757;52.626;4.746;2023-04-21T08:29:56;101357.84;;;15.60;62.41
15314;BME280;7757;52.626;4.746;2023-04-21T08:32:42;101363.47;;;15.52;62.29
15314;BME280;7757;52.626;4.746;2023-04-21T08:35:29;101366.38;;;15.64;62.32
15314;BME280;7757;52.626;4.746;2023-04-21T08:38:15;101358.91;;;15.66;61.74
15314;BME280;7757;52.626;4.746;2023-04-21T08:41:00;101355.47;;;15.18;63.11
15314;BME280;7757;52.626;4.746;2023-04-21T08:43:47;101365.13;;;15.47;62.05
15314;BME280;7757;52.626;4.746;2023-04-21T08:46:34;101371.72;;;15.51;61.73
15314;BME280;7757;52.626;4.746;2023-04-21T08:49:20;101368.91;;;15.12;64.04
15314;BME280;7757;52.626;4.746;2023-04-21T08:52:10;101369.13;;;15.10;63.40
15314;BME280;7757;52.626;4.746;2023-04-21T08:54:56;101370.13;;;15.09;64.18
15314;BME280;7757;52.626;4.746;2023-04-21T08:57:42;101379.91;;;15.10;63.61
15314;BME280;7757;52.626;4.746;2023-04-21T09:00:27;101387.34;;;14.61;66.49
15314;BME280;7757;52.626;4.746;2023-04-21T09:03:13;101384.91;;;15.20;63.77
15314;BME280;7757;52.626;4.746;2023-04-21T09:06:06;101371.03;;;14.69;65.16
15314;BME280;7757;52.626;4.746;2023-04-21T09:08:54;101368.97;;;15.31;63.24
15314;BME280;7757;52.626;4.746;2023-04-21T09:11:39;101374.13;;;15.20;63.71
15314;BME280;7757;52.626;4.746;2023-04-21T09:14:30;101374.59;;;15.43;62.21
15314;BME280;7757;52.626;4.746;2023-04-21T09:17:17;101382.22;;;15.20;63.00
15314;BME280;7757;52.626;4.746;2023-04-21T09:20:21;101392.06;;;14.93;64.11
15314;BME280;7757;52.626;4.746;2023-04-21T09:23:06;101382.22;;;15.20;62.98
15314;BME280;7757;52.626;4.746;2023-04-21T09:25:53;101378.59;;;14.93;64.69
15314;BME280;7757;52.626;4.746;2023-04-21T09:28:43;101376.03;;;14.78;65.40
15314;BME280;7757;52.626;4.746;2023-04-21T09:31:28;101369.13;;;15.10;64.18
15314;BME280;7757;52.626;4.746;2023-04-21T09:34:20;101372.03;;;15.08;63.80
15314;BME280;7757;52.626;4.746;2023-04-21T09:37:10;101369.56;;;14.66;65.83
15314;BME280;7757;52.626;4.746;2023-04-21T09:39:55;101367.25;;;15.11;64.01
15314;BME280;7757;52.626;4.746;2023-04-21T09:42:41;101365.50;;;14.83;65.96
15314;BME280;7757;52.626;4.746;2023-04-21T09:45:27;101363.13;;;15.08;63.67
15314;BME280;7757;52.626;4.746;2023-04-21T09:48:16;101362.09;;;15.16;63.63
15314;BME280;7757;52.626;4.746;2023-04-21T09:51:01;101364.59;;;15.17;63.66
15314;BME280;7757;52.626;4.746;2023-04-21T09:53:48;101360.72;;;15.46;62.79
15314;BME280;7757;52.626;4.746;2023-04-21T09:56:39;101344.19;;;15.75;61.75
15314;BME280;7757;52.626;4.746;2023-04-21T09:59:29;101334.34;;;15.28;63.22
15314;BME280;7757;52.626;4.746;2023-04-21T10:02:15;101353.16;;;15.02;65.08
15314;BME280;7757;52.626;4.746;2023-04-21T10:05:03;101359.53;;;14.88;66.05
15314;BME280;7757;52.626;4.746;2023-04-21T10:07:49;101350.94;;;15.25;63.85
15314;BME280;7757;52.626;4.746;2023-04-21T10:10:34;101354.22;;;15.21;63.90
15314;BME280;7757;52.626;4.746;2023-04-21T10:13:20;101341.84;;;15.46;62.50
15314;BME280;7757;52.626;4.746;2023-04-21T10:16:08;101349.56;;;15.49;62.83
15314;BME280;7757;52.626;4.746;2023-04-21T10:18:53;101339.91;;;15.14;63.77
15314;BME280;7757;52.626;4.746;2023-04-21T10:21:39;101344.94;;;15.36;62.83
15314;BME280;7757;52.626;4.746;2023-04-21T10:24:27;101336.34;;;15.06;65.01
15314;BME280;7757;52.626;4.746;2023-04-21T10:27:29;101341.88;;;15.52;62.81
15314;BME280;7757;52.626;4.746;2023-04-21T10:30:19;101347.28;;;15.92;60.83
15314;BME280;7757;52.626;4.746;2023-04-21T10:33:06;101349.88;;;15.20;63.60
15314;BME280;7757;52.626;4.746;2023-04-21T10:35:58;101350.59;;;15.54;62.53
15314;BME280;7757;52.626;4.746;2023-04-21T10:38:54;101347.00;;;15.34;63.93
15314;BME280;7757;52.626;4.746;2023-04-21T10:41:41;101345.34;;;15.33;63.80
15314;BME280;7757;52.626;4.746;2023-04-21T10:44:29;101329.38;;;15.38;63.14
15314;BME280;7757;52.626;4.746;2023-04-21T10:47:23;101320.50;;;15.71;61.89
15314;BME280;7757;52.626;4.746;2023-04-21T10:50:16;101303.84;;;15.21;63.52
15314;BME280;7757;52.626;4.746;2023-04-21T10:53:07;101320.03;;;15.21;64.44
15314;BME280;7757;52.626;4.746;2023-04-21T10:55:54;101324.25;;;15.56;62.75
15314;BME280;7757;52.626;4.746;2023-04-21T10:58:39;101326.31;;;15.54;63.48
15314;BME280;7757;52.626;4.746;2023-04-21T11:01:25;101329.03;;;15.54;63.50
15314;BME280;7757;52.626;4.746;2023-04-21T11:04:12;101334.22;;;15.62;62.91
15314;BME280;7757;52.626;4.746;2023-04-21T11:07:06;101333.41;;;15.82;62.12
15314;BME280;7757;52.626;4.746;2023-04-21T11:09:56;101324.25;;;15.83;61.72
15314;BME280;7757;52.626;4.746;2023-04-21T11:12:42;101323.41;;;15.89;61.49
15314;BME280;7757;52.626;4.746;2023-04-21T11:15:28;101318.88;;;15.76;62.22
15314;BME280;7757;52.626;4.746;2023-04-21T11:18:13;101310.16;;;15.81;61.83
15314;BME280;7757;52.626;4.746;2023-04-21T11:21:06;101302.91;;;15.55;63.38
15314;BME280;7757;52.626;4.746;2023-04-21T11:23:54;101309.09;;;15.62;63.71
15314;BME280;7757;52.626;4.746;2023-04-21T11:26:40;101306.59;;;15.74;63.07
15314;BME280;7757;52.626;4.746;2023-04-21T11:29:25;101303.53;;;15.70;62.94
15314;BME280;7757;52.626;4.746;2023-04-21T11:32:11;101303.09;;;15.86;61.74
15314;BME280;7757;52.626;4.746;2023-04-21T13:52:16;101125.06;;;16.68;59.70
15314;BME280;7757;52.626;4.746;2023-04-21T13:55:01;101113.25;;;16.63;60.71
15314;BME280;7757;52.626;4.746;2023-04-21T13:57:48;101109.16;;;16.54;60.23
15314;BME280;7757;52.626;4.746;2023-04-21T14:29:14;101064.53;;;17.01;59.18
15314;BME280;7757;52.626;4.746;2023-04-21T14:32:00;101059.75;;;17.03;59.08
15314;BME280;7757;52.626;4.746;2023-04-21T14:34:45;101063.28;;;17.03;59.03
15314;BME280;7757;52.626;4.746;2023-04-21T14:37:36;101049.75;;;17.03;59.34
15314;BME280;7757;52.626;4.746;2023-04-21T14:40:21;101044.22;;;16.92;58.99
15314;BME280;7757;52.626;4.746;2023-04-21T14:43:07;101044.13;;;17.05;59.44
15314;BME280;7757;52.626;4.746;2023-04-21T14:45:55;101041.31;;;16.93;60.02
15314;BME280;7757;52.626;4.746;2023-04-21T14:48:41;101045.84;;;16.99;59.25
15314;BME280;7757;52.626;4.746;2023-04-21T14:51:27;101037.69;;;17.06;59.30
15314;BME280;7757;52.626;4.746;2023-04-21T14:54:12;101043.25;;;17.29;59.34
15314;BME280;7757;52.626;4.746;2023-04-21T14:56:58;101031.38;;;17.30;58.27
15314;BME280;7757;52.626;4.746;2023-04-21T14:59:45;101034.75;;;17.25;58.96
15314;BME280;7757;52.626;4.746;2023-04-21T15:02:32;101023.56;;;17.40;58.69
15314;BME280;7757;52.626;4.746;2023-04-21T15:05:17;101022.66;;;17.46;58.58
15314;BME280;7757;52.626;4.746;2023-04-21T15:08:02;101003.28;;;17.49;58.23
15314;BME280;7757;52.626;4.746;2023-04-21T15:10:49;101005.47;;;17.41;58.25
15314;BME280;7757;52.626;4.746;2023-04-21T15:13:35;100984.59;;;17.29;59.30
15314;BME280;7757;52.626;4.746;2023-04-21T15:16:21;100999.69;;;17.19;58.80
15314;BME280;7757;52.626;4.746;2023-04-21T15:19:07;100988.28;;;17.17;59.44
15314;BME280;7757;52.626;4.746;2023-04-21T15:21:53;100992.72;;;17.11;59.06
15314;BME280;7757;52.626;4.746;2023-04-21T15:24:39;100987.31;;;17.11;59.47
15314;BME280;7757;52.626;4.746;2023-04-21T15:27:24;100989.09;;;16.99;60.02
15314;BME280;7757;52.626;4.746;2023-04-21T15:30:11;100979.13;;;17.18;59.70
15314;BME280;7757;52.626;4.746;2023-04-21T15:32:56;100962.06;;;16.99;60.03
15314;BME280;7757;52.626;4.746;2023-04-21T15:35:43;100966.00;;;17.03;60.28
15314;BME280;7757;52.626;4.746;2023-04-21T15:38:31;100962.66;;;16.83;61.07
15314;BME280;7757;52.626;4.746;2023-04-21T15:41:16;100949.47;;;16.93;60.16
15314;BME280;7757;52.626;4.746;2023-04-21T15:44:02;100943.16;;;16.99;60.30
15314;BME280;7757;52.626;4.746;2023-04-21T15:46:47;100942.03;;;17.07;60.17
15314;BME280;7757;52.626;4.746;2023-04-21T15:49:33;100924.63;;;16.85;61.06
15314;BME280;7757;52.626;4.746;2023-04-21T15:52:20;100930.41;;;16.88;62.40
15314;BME280;7757;52.626;4.746;2023-04-21T15:55:06;100939.56;;;17.05;61.98
15314;BME280;7757;52.626;4.746;2023-04-21T15:57:51;100930.03;;;17.03;61.34
15314;BME280;7757;52.626;4.746;2023-04-21T16:00:37;100931.91;;;16.84;61.69
15314;BME280;7757;52.626;4.746;2023-04-21T16:03:22;100915.75;;;16.96;61.45
15314;BME280;7757;52.626;4.746;2023-04-21T16:06:08;100907.13;;;17.05;61.01
15314;BME280;7757;52.626;4.746;2023-04-21T16:08:54;100910.41;;;16.71;62.06
15314;BME280;7757;52.626;4.746;2023-04-21T16:11:40;100881.50;;;16.35;62.30
15314;BME280;7757;52.626;4.746;2023-04-21T16:14:25;100932.56;;;16.61;61.42
15314;BME280;7757;52.626;4.746;2023-04-21T16:17:11;100924.47;;;16.61;61.38
15314;BME280;7757;52.626;4.746;2023-04-21T16:19:56;100925.97;;;16.76;62.33
15314;BME280;7757;52.626;4.746;2023-04-21T16:22:42;100910.72;;;16.63;61.76
15314;BME280;7757;52.626;4.746;2023-04-21T16:25:29;100907.44;;;16.61;62.43
15314;BME280;7757;52.626;4.746;2023-04-21T16:28:14;100907.38;;;16.86;61.55
15314;BME280;7757;52.626;4.746;2023-04-21T16:31:00;100890.66;;;16.52;62.86
15314;BME280;7757;52.626;4.746;2023-04-21T16:33:45;100884.03;;;16.73;61.72
15314;BME280;7757;52.626;4.746;2023-04-21T16:36:32;100865.25;;;16.60;62.43
15314;BME280;7757;52.626;4.746;2023-04-21T16:39:18;100856.78;;;16.56;62.25
15314;BME280;7757;52.626;4.746;2023-04-21T16:42:05;100847.25;;;16.72;61.85
15314;BME280;7757;52.626;4.746;2023-04-21T16:44:50;100833.03;;;16.65;61.84
15314;BME280;7757;52.626;4.746;2023-04-21T16:47:41;100842.63;;;16.79;61.65
15314;BME280;7757;52.626;4.746;2023-04-21T16:50:26;100839.16;;;16.90;60.96
15314;BME280;7757;52.626;4.746;2023-04-21T16:53:12;100829.25;;;16.84;61.51
15314;BME280;7757;52.626;4.746;2023-04-21T16:55:57;100836.44;;;16.90;61.67
15314;BME280;7757;52.626;4.746;2023-04-21T16:58:44;100830.00;;;16.73;62.52
15314;BME280;7757;52.626;4.746;2023-04-21T17:01:29;100831.13;;;16.84;61.50
15314;BME280;7757;52.626;4.746;2023-04-21T17:04:15;100840.88;;;16.66;62.70
15314;BME280;7757;52.626;4.746;2023-04-21T17:07:00;100851.19;;;16.76;62.31
15314;BME280;7757;52.626;4.746;2023-04-21T17:09:46;100818.78;;;16.33;63.20
15314;BME280;7757;52.626;4.746;2023-04-21T17:12:31;100814.09;;;16.47;62.89
15314;BME280;7757;52.626;4.746;2023-04-21T17:15:18;100823.34;;;16.57;63.33
15314;BME280;7757;52.626;4.746;2023-04-21T17:18:04;100826.16;;;16.44;63.06
15314;BME280;7757;52.626;4.746;2023-04-21T17:20:49;100827.63;;;16.65;62.54
15314;BME280;7757;52.626;4.746;2023-04-21T17:23:34;100836.31;;;16.85;61.77
15314;BME280;7757;52.626;4.746;2023-04-21T17:26:20;100834.03;;;16.46;64.16